createdAt,value
2022-10-30T00:01:22.666Z,15.50
2022-10-30T00:03:50.610Z,15.10
2022-10-30T00:06:20.971Z,14.70
2022-10-30T00:08:50.997Z,14.60
2022-10-30T00:11:18.770Z,15.00
2022-10-30T00:13:46.933Z,15.60
2022-10-30T00:16:14.697Z,13.90
2022-10-30T00:18:43.861Z,16.10
2022-10-30T00:21:16.467Z,14.00
2022-10-30T00:23:50.857Z,11.20
2022-10-30T00:26:21.542Z,15.30
2022-10-30T00:28:55.757Z,13.70
2022-10-30T00:31:24.344Z,12.30
2022-10-30T00:33:53.748Z,14.20
2022-10-30T00:36:23.791Z,15.00
2022-10-30T00:38:51.606Z,14.40
2022-10-30T00:41:23.060Z,15.40
2022-10-30T00:43:52.183Z,13.90
2022-10-30T00:46:37.863Z,12.90
2022-10-30T00:49:17.090Z,12.90
2022-10-30T00:51:55.370Z,13.40
2022-10-30T00:54:24.377Z,15.10
2022-10-30T00:56:54.653Z,17.40
2022-10-30T00:59:27.826Z,14.30
2022-10-30T01:01:56.544Z,14.00
2022-10-30T01:04:29.958Z,15.00
2022-10-30T01:07:06.131Z,14.30
2022-10-30T01:09:35.437Z,11.70
2022-10-30T01:12:03.126Z,12.80
2022-10-30T01:14:32.388Z,11.80
2022-10-30T01:17:19.592Z,13.30
2022-10-30T01:20:44.013Z,13.90
2022-10-30T01:23:48.623Z,12.50
2022-10-30T01:26:57.801Z,12.70
2022-10-30T01:29:52.005Z,17.10
2022-10-30T01:32:42.440Z,16.30
2022-10-30T01:35:24.566Z,14.70
2022-10-30T01:38:17.670Z,15.40
2022-10-30T01:40:46.192Z,18.60
2022-10-30T01:43:13.835Z,17.40
2022-10-30T01:46:08.330Z,16.80
2022-10-30T01:48:47.514Z,15.70
2022-10-30T01:51:39.517Z,14.80
2022-10-30T01:54:26.665Z,12.40
2022-10-30T01:57:20.927Z,14.40
2022-10-30T02:00:08.343Z,12.50
2022-10-30T02:02:37.679Z,14.10
2022-10-30T02:05:09.277Z,12.20
2022-10-30T02:07:38.086Z,16.40
2022-10-30T02:10:06.083Z,11.90
2022-10-30T02:12:34.613Z,12.50
2022-10-30T02:15:03.511Z,11.60
2022-10-30T02:17:32.012Z,11.70
2022-10-30T02:19:59.747Z,13.90
2022-10-30T02:22:28.308Z,13.50
2022-10-30T02:24:57.210Z,10.40
2022-10-30T02:27:24.994Z,10.40
2022-10-30T02:29:52.738Z,12.60
2022-10-30T02:32:20.359Z,13.80
2022-10-30T02:34:48.174Z,11.70
2022-10-30T02:37:15.891Z,11.80
2022-10-30T02:39:43.549Z,14.60
2022-10-30T02:42:12.355Z,14.40
2022-10-30T02:44:40.954Z,9.90
2022-10-30T02:47:09.522Z,14.50
2022-10-30T02:49:37.278Z,12.80
2022-10-30T02:52:09.307Z,11.80
2022-10-30T02:54:37.025Z,12.80
2022-10-30T02:57:04.701Z,13.70
2022-10-30T02:59:32.976Z,15.40
2022-10-30T03:02:00.801Z,14.00
2022-10-30T03:04:29.186Z,11.60
2022-10-30T03:06:57.694Z,11.90
2022-10-30T03:09:25.426Z,14.70
2022-10-30T03:11:53.099Z,12.70
2022-10-30T03:14:20.878Z,14.20
2022-10-30T03:16:48.672Z,13.00
2022-10-30T03:19:16.344Z,11.50
2022-10-30T03:21:44.034Z,13.00
2022-10-30T03:24:11.758Z,12.90
2022-10-30T03:26:39.473Z,12.90
2022-10-30T03:29:07.945Z,13.70
2022-10-30T03:31:37.141Z,12.40
2022-10-30T03:34:04.970Z,11.60
2022-10-30T03:36:32.663Z,13.70
2022-10-30T03:39:01.067Z,13.40
2022-10-30T03:41:29.584Z,14.20
2022-10-30T03:43:57.248Z,10.20
2022-10-30T03:46:25.612Z,12.00
2022-10-30T03:48:53.298Z,13.90
2022-10-30T03:51:20.932Z,14.10
2022-10-30T03:53:49.907Z,14.30
2022-10-30T03:56:17.623Z,9.80
2022-10-30T03:58:46.215Z,13.10
2022-10-30T04:01:14.723Z,12.80
2022-10-30T04:03:42.428Z,11.70
2022-10-30T04:06:10.088Z,12.20
2022-10-30T04:08:38.661Z,10.70
2022-10-30T04:11:06.428Z,11.90
2022-10-30T04:13:34.069Z,11.80
2022-10-30T04:16:03.327Z,13.90
2022-10-30T04:18:31.051Z,13.30
2022-10-30T04:21:01.711Z,9.80
2022-10-30T04:23:29.564Z,12.20
2022-10-30T04:26:01.764Z,13.00
2022-10-30T04:28:29.508Z,9.50
2022-10-30T04:30:57.131Z,10.30
2022-10-30T04:33:24.917Z,13.00
2022-10-30T04:35:52.591Z,9.40
2022-10-30T04:38:20.281Z,13.80
2022-10-30T04:40:48.854Z,18.30
2022-10-30T04:43:16.576Z,14.80
2022-10-30T04:45:44.249Z,11.10
2022-10-30T04:48:16.806Z,13.40
2022-10-30T04:50:45.750Z,9.10
2022-10-30T04:53:19.121Z,12.40
2022-10-30T04:55:47.508Z,12.10
2022-10-30T04:58:15.259Z,12.50
2022-10-30T05:00:43.955Z,9.40
2022-10-30T05:03:20.413Z,11.80
2022-10-30T05:06:03.602Z,12.50
2022-10-30T05:08:32.615Z,13.60
2022-10-30T05:11:05.504Z,12.00
2022-10-30T05:13:33.209Z,12.80
2022-10-30T05:16:00.899Z,13.20
2022-10-30T05:18:29.369Z,11.90
2022-10-30T05:20:57.094Z,16.40
2022-10-30T05:23:24.824Z,13.50
2022-10-30T05:25:52.535Z,10.60
2022-10-30T05:28:20.346Z,10.10
2022-10-30T05:30:48.002Z,11.50
2022-10-30T05:33:18.697Z,9.40
2022-10-30T05:35:47.242Z,9.40
2022-10-30T05:38:14.857Z,12.60
2022-10-30T05:40:47.122Z,10.80
2022-10-30T05:43:14.833Z,13.40
2022-10-30T05:45:42.687Z,12.40
2022-10-30T05:48:11.029Z,13.60
2022-10-30T05:50:38.729Z,10.60
2022-10-30T05:53:06.540Z,9.80
2022-10-30T05:55:34.288Z,12.70
2022-10-30T05:58:06.736Z,13.10
2022-10-30T06:00:37.385Z,12.10
2022-10-30T06:03:08.368Z,11.00
2022-10-30T06:05:38.202Z,10.60
2022-10-30T06:08:08.621Z,10.20
2022-10-30T06:10:38.544Z,11.90
2022-10-30T06:13:07.996Z,13.10
2022-10-30T06:15:35.790Z,13.30
2022-10-30T06:18:04.530Z,12.00
2022-10-30T06:20:33.037Z,11.70
2022-10-30T06:23:05.132Z,11.30
2022-10-30T06:25:40.812Z,10.90
2022-10-30T06:28:11.660Z,8.80
2022-10-30T06:30:39.440Z,10.60
2022-10-30T06:33:10.462Z,13.80
2022-10-30T06:35:38.373Z,15.90
2022-10-30T06:38:06.240Z,12.10
2022-10-30T06:40:33.973Z,9.90
2022-10-30T06:43:02.010Z,11.50
2022-10-30T06:45:30.338Z,11.40
2022-10-30T06:48:00.495Z,11.30
2022-10-30T06:50:29.721Z,11.30
2022-10-30T06:52:57.458Z,13.30
2022-10-30T06:55:25.972Z,10.90
2022-10-30T06:57:56.455Z,10.00
2022-10-30T07:00:24.404Z,13.60
2022-10-30T07:02:58.342Z,14.70
2022-10-30T07:05:27.851Z,9.10
2022-10-30T07:07:57.400Z,11.30
2022-10-30T07:10:26.119Z,11.20
2022-10-30T07:12:57.463Z,11.20
2022-10-30T07:15:26.839Z,11.20
2022-10-30T07:17:59.410Z,18.40
2022-10-30T07:20:30.015Z,11.50
2022-10-30T07:22:57.751Z,13.70
2022-10-30T07:25:25.562Z,11.60
2022-10-30T07:27:56.424Z,14.50
2022-10-30T07:30:28.242Z,16.00
2022-10-30T07:33:02.066Z,14.50
2022-10-30T07:35:34.006Z,12.30
2022-10-30T07:38:13.195Z,12.00
2022-10-30T07:40:40.961Z,15.60
2022-10-30T07:43:14.006Z,15.50
2022-10-30T07:45:45.774Z,16.70
2022-10-30T07:48:13.510Z,16.70
2022-10-30T07:50:42.355Z,13.50
2022-10-30T07:53:10.677Z,15.30
2022-10-30T07:55:38.965Z,17.10
2022-10-30T07:58:06.682Z,16.90
2022-10-30T08:00:34.817Z,20.50
2022-10-30T08:03:03.044Z,18.90
2022-10-30T08:05:31.344Z,18.80
2022-10-30T08:08:00.042Z,16.80
2022-10-30T08:10:29.511Z,22.00
2022-10-30T08:12:57.325Z,15.70
2022-10-30T08:15:25.109Z,15.90
2022-10-30T08:17:53.768Z,18.20
2022-10-30T08:20:25.054Z,18.60
2022-10-30T08:22:56.948Z,15.40
2022-10-30T08:25:31.010Z,20.00
2022-10-30T08:28:04.511Z,14.30
2022-10-30T08:30:36.269Z,14.50
2022-10-30T08:33:14.058Z,17.70
2022-10-30T08:35:51.485Z,14.80
2022-10-30T08:38:21.010Z,15.80
2022-10-30T08:40:48.772Z,15.10
2022-10-30T08:43:17.305Z,14.20
2022-10-30T08:45:45.042Z,18.30
2022-10-30T08:48:15.691Z,15.70
2022-10-30T08:50:45.417Z,14.40
2022-10-30T08:53:16.152Z,17.70
2022-10-30T08:55:44.024Z,14.00
2022-10-30T08:58:12.354Z,16.60
2022-10-30T09:00:40.851Z,14.10
2022-10-30T09:03:10.293Z,17.70
2022-10-30T09:05:38.926Z,16.10
2022-10-30T09:08:07.461Z,14.10
2022-10-30T09:10:36.741Z,14.50
2022-10-30T09:13:04.524Z,13.80
2022-10-30T09:15:33.722Z,16.10
2022-10-30T09:18:04.811Z,14.70
2022-10-30T09:20:33.354Z,13.70
2022-10-30T09:23:01.658Z,14.10
2022-10-30T09:25:31.151Z,14.00
2022-10-30T09:27:58.893Z,16.00
2022-10-30T09:30:26.733Z,18.90
2022-10-30T09:32:57.838Z,20.30
2022-10-30T09:35:26.825Z,19.90
2022-10-30T09:37:55.992Z,18.30
2022-10-30T09:40:49.197Z,16.60
2022-10-30T09:43:50.697Z,14.30
2022-10-30T09:46:31.700Z,13.50
2022-10-30T09:49:27.951Z,13.30
2022-10-30T09:52:23.278Z,14.80
2022-10-30T09:54:59.482Z,17.00
2022-10-30T09:57:58.526Z,13.80
2022-10-30T10:00:39.273Z,16.60
2022-10-30T10:03:12.926Z,15.10
2022-10-30T10:05:55.857Z,16.10
2022-10-30T10:08:38.544Z,13.90
2022-10-30T10:11:22.470Z,21.10
2022-10-30T10:14:01.885Z,19.10
2022-10-30T10:16:36.735Z,15.30
2022-10-30T10:19:09.941Z,13.60
2022-10-30T10:21:51.772Z,14.50
2022-10-30T10:24:27.093Z,18.20
2022-10-30T10:27:33.707Z,25.30
2022-10-30T10:30:11.202Z,15.90
2022-10-30T10:32:57.990Z,15.40
2022-10-30T10:36:05.653Z,16.40
2022-10-30T10:39:00.376Z,17.50
2022-10-30T10:41:53.599Z,15.00
2022-10-30T10:44:59.084Z,15.80
2022-10-30T10:47:41.849Z,15.80
2022-10-30T10:50:26.322Z,15.60
2022-10-30T10:53:05.619Z,15.80
2022-10-30T10:55:38.867Z,14.00
2022-10-30T10:58:37.015Z,19.20
2022-10-30T11:01:14.480Z,17.10
2022-10-30T11:04:11.923Z,20.60
2022-10-30T11:06:44.506Z,97.70
2022-10-30T11:09:22.234Z,27.80
2022-10-30T11:11:54.877Z,26.20
2022-10-30T11:14:28.079Z,22.50
2022-10-30T11:17:21.146Z,16.60
2022-10-30T11:19:58.032Z,17.10
2022-10-30T11:22:35.013Z,21.20
2022-10-30T11:25:27.004Z,18.10
2022-10-30T11:28:04.843Z,21.40
2022-10-30T11:30:34.806Z,18.00
2022-10-30T11:33:23.325Z,21.60
2022-10-30T11:35:52.593Z,17.60
2022-10-30T11:38:21.568Z,18.60
2022-10-30T11:40:52.870Z,23.80
2022-10-30T11:43:25.904Z,24.00
2022-10-30T11:48:33.436Z,23.80
2022-10-30T11:51:04.506Z,22.70
2022-10-30T11:53:42.695Z,26.30
2022-10-30T11:56:24.606Z,27.60
2022-10-30T11:58:55.913Z,22.20
2022-10-30T12:01:28.188Z,23.10
2022-10-30T12:03:57.299Z,22.00
2022-10-30T12:06:30.269Z,21.30
2022-10-30T12:09:12.765Z,20.70
2022-10-30T12:11:45.462Z,23.80
2022-10-30T12:14:29.648Z,23.70
2022-10-30T12:16:59.828Z,23.30
2022-10-30T12:19:33.045Z,22.00
2022-10-30T12:22:02.492Z,23.20
2022-10-30T12:24:36.811Z,20.40
2022-10-30T12:27:19.833Z,22.70
2022-10-30T12:30:09.862Z,20.40
2022-10-30T12:32:59.312Z,24.90
2022-10-30T12:35:52.003Z,25.00
2022-10-30T12:38:46.074Z,22.30
2022-10-30T12:41:24.866Z,25.60
2022-10-30T12:44:13.727Z,25.60
2022-10-30T12:46:54.844Z,23.70
2022-10-30T12:49:47.454Z,27.60
2022-10-30T12:52:19.564Z,21.70
2022-10-30T12:54:54.411Z,21.20
2022-10-30T12:57:29.072Z,22.90
2022-10-30T13:00:14.919Z,22.90
2022-10-30T13:02:51.732Z,24.90
2022-10-30T13:05:35.640Z,26.80
2022-10-30T13:08:21.661Z,46.20
2022-10-30T13:10:58.233Z,30.20
2022-10-30T13:13:37.263Z,28.90
2022-10-30T13:16:14.157Z,25.70
2022-10-30T13:18:42.075Z,26.10
2022-10-30T13:21:12.508Z,26.20
2022-10-30T13:23:51.460Z,36.30
2022-10-30T13:26:41.811Z,26.00
2022-10-30T13:29:12.486Z,32.60
2022-10-30T13:32:13.182Z,25.40
2022-10-30T13:34:59.929Z,25.20
2022-10-30T13:37:48.376Z,29.30
2022-10-30T13:40:41.236Z,26.80
2022-10-30T13:43:53.519Z,25.90
2022-10-30T13:46:48.872Z,27.40
2022-10-30T13:49:39.788Z,25.60
2022-10-30T13:52:15.673Z,26.10
2022-10-30T13:54:58.381Z,26.80
2022-10-30T13:57:39.807Z,29.10
2022-10-30T14:00:34.810Z,27.60
2022-10-30T14:03:24.097Z,31.20
2022-10-30T14:06:04.476Z,25.70
2022-10-30T14:09:00.224Z,29.10
2022-10-30T14:11:30.067Z,30.50
2022-10-30T14:14:23.333Z,31.80
2022-10-30T14:17:11.598Z,27.30
2022-10-30T14:20:13.363Z,26.40
2022-10-30T14:22:42.420Z,46.60
2022-10-30T14:25:16.561Z,37.40
2022-10-30T14:27:57.225Z,33.80
2022-10-30T14:30:29.011Z,30.30
2022-10-30T14:32:58.666Z,27.40
2022-10-30T14:35:33.267Z,28.70
2022-10-30T14:38:07.307Z,36.80
2022-10-30T14:40:53.963Z,29.60
2022-10-30T14:43:36.962Z,33.80
2022-10-30T14:46:27.023Z,28.90
2022-10-30T14:49:27.069Z,34.70
2022-10-30T14:52:18.801Z,29.40
2022-10-30T14:55:12.925Z,32.10
2022-10-30T14:57:53.722Z,50.70
2022-10-30T15:00:26.201Z,36.30
2022-10-30T15:03:12.502Z,30.70
2022-10-30T15:05:53.488Z,30.50
2022-10-30T15:08:43.086Z,27.40
2022-10-30T15:11:30.261Z,29.10
2022-10-30T15:14:16.210Z,30.80
2022-10-30T15:16:54.594Z,36.80
2022-10-30T15:19:25.931Z,41.10
2022-10-30T15:21:57.156Z,41.90
2022-10-30T15:24:32.316Z,40.30
2022-10-30T15:27:02.893Z,43.60
2022-10-30T15:29:37.652Z,40.50
2022-10-30T15:32:19.278Z,43.20
2022-10-30T15:35:05.574Z,43.20
2022-10-30T15:37:33.489Z,36.80
2022-10-30T15:40:22.380Z,37.70
2022-10-30T15:42:53.101Z,44.20
2022-10-30T15:45:39.110Z,37.30
2022-10-30T15:48:28.996Z,35.70
2022-10-30T15:51:17.963Z,40.30
2022-10-30T15:54:00.646Z,39.90
2022-10-30T15:57:31.303Z,33.70
2022-10-30T15:59:57.251Z,33.70
2022-10-30T16:02:30.432Z,32.50
2022-10-30T16:04:58.116Z,38.10
2022-10-30T16:07:29.915Z,37.60
2022-10-30T16:10:02.537Z,35.10
2022-10-30T16:12:34.523Z,31.50
2022-10-30T16:15:19.012Z,35.20
2022-10-30T16:18:21.588Z,37.60
2022-10-30T16:20:54.093Z,36.50
2022-10-30T16:23:24.755Z,35.40
2022-10-30T16:25:58.704Z,39.20
2022-10-30T16:28:37.736Z,35.70
2022-10-30T16:31:14.385Z,41.10
2022-10-30T16:33:46.948Z,33.20
2022-10-30T16:36:18.534Z,39.50
2022-10-30T16:38:48.716Z,39.70
2022-10-30T16:41:22.705Z,40.30
2022-10-30T16:44:13.263Z,40.60
2022-10-30T16:46:53.325Z,34.10
2022-10-30T16:49:31.969Z,31.70
2022-10-30T16:52:05.470Z,31.70
2022-10-30T16:54:41.889Z,31.20
2022-10-30T16:57:39.680Z,36.50
2022-10-30T17:00:24.433Z,35.70
2022-10-30T17:03:06.425Z,29.80
2022-10-30T17:05:37.160Z,31.30
2022-10-30T17:08:41.859Z,26.10
2022-10-30T17:11:20.232Z,22.80
2022-10-30T17:13:54.090Z,24.00
2022-10-30T17:16:36.287Z,23.10
2022-10-30T17:19:22.609Z,20.40
2022-10-30T17:21:53.445Z,22.10
2022-10-30T17:24:31.551Z,21.80
2022-10-30T17:27:04.225Z,20.90
2022-10-30T17:29:37.946Z,24.50
2022-10-30T17:32:24.721Z,25.60
2022-10-30T17:35:09.704Z,22.30
2022-10-30T17:37:37.554Z,21.60
2022-10-30T17:40:06.615Z,20.30
2022-10-30T17:42:35.391Z,21.40
2022-10-30T17:45:10.731Z,23.10
2022-10-30T17:47:38.709Z,20.70
2022-10-30T17:50:09.786Z,25.30
2022-10-30T17:52:37.507Z,25.10
2022-10-30T17:55:27.898Z,22.80
2022-10-30T17:57:56.209Z,23.00
2022-10-30T18:00:23.914Z,22.50
2022-10-30T18:02:51.727Z,21.20
2022-10-30T18:05:35.202Z,20.90
2022-10-30T18:08:02.976Z,24.10
2022-10-30T18:10:31.246Z,21.70
2022-10-30T18:12:59.869Z,22.60
2022-10-30T18:15:40.951Z,22.00
2022-10-30T18:18:08.661Z,24.50
2022-10-30T18:20:37.961Z,21.80
2022-10-30T18:23:46.746Z,22.10
2022-10-30T18:26:17.236Z,21.90
2022-10-30T18:28:47.339Z,23.90
2022-10-30T18:31:20.305Z,24.00
2022-10-30T18:33:50.060Z,23.70
2022-10-30T18:36:22.025Z,27.50
2022-10-30T18:38:56.166Z,25.30
2022-10-30T18:41:34.520Z,25.90
2022-10-30T18:44:04.431Z,25.50
2022-10-30T18:46:34.908Z,25.70
2022-10-30T18:49:02.650Z,24.20
2022-10-30T18:51:32.127Z,27.10
2022-10-30T18:54:02.141Z,26.90
2022-10-30T18:56:34.630Z,25.40
2022-10-30T18:59:02.850Z,23.50
2022-10-30T19:01:33.335Z,24.30
2022-10-30T19:04:04.070Z,25.00
2022-10-30T19:06:34.555Z,23.90
2022-10-30T19:09:02.780Z,29.50
2022-10-30T19:11:31.873Z,27.50
2022-10-30T19:14:01.541Z,22.20
2022-10-30T19:16:29.355Z,25.80
2022-10-30T19:18:57.104Z,23.80
2022-10-30T19:21:28.197Z,23.60
2022-10-30T19:24:01.844Z,26.00
2022-10-30T19:26:29.872Z,28.50
2022-10-30T19:28:57.911Z,24.80
2022-10-30T19:31:27.245Z,23.60
2022-10-30T19:33:57.441Z,24.50
2022-10-30T19:36:28.393Z,24.10
2022-10-30T19:38:58.240Z,26.00
2022-10-30T19:41:27.732Z,25.00
2022-10-30T19:43:56.834Z,25.20
2022-10-30T19:46:25.130Z,25.70
2022-10-30T19:48:57.740Z,24.30
2022-10-30T19:51:28.990Z,24.90
2022-10-30T19:53:58.468Z,26.80
2022-10-30T19:56:26.524Z,24.90
2022-10-30T19:58:54.174Z,26.00
2022-10-30T20:01:22.223Z,27.00
2022-10-30T20:03:51.165Z,25.20
2022-10-30T20:06:19.568Z,24.50
2022-10-30T20:08:47.472Z,24.30
2022-10-30T20:11:15.263Z,26.70
2022-10-30T20:13:42.937Z,26.80
2022-10-30T20:16:11.104Z,26.50
2022-10-30T20:18:39.078Z,26.80
2022-10-30T20:21:11.484Z,25.60
2022-10-30T20:23:39.612Z,24.90
2022-10-30T20:26:27.168Z,23.00
2022-10-30T20:28:56.612Z,25.50
2022-10-30T20:31:26.132Z,25.50
2022-10-30T20:33:55.635Z,24.00
2022-10-30T20:36:23.555Z,24.40
2022-10-30T20:38:51.419Z,24.40
2022-10-30T20:41:25.998Z,25.30
2022-10-30T20:43:53.701Z,24.10
2022-10-30T20:46:23.043Z,23.80
2022-10-30T20:48:52.163Z,25.50
2022-10-30T20:51:20.061Z,26.90
2022-10-30T20:53:52.387Z,26.40
2022-10-30T20:56:20.287Z,29.30
2022-10-30T20:58:49.697Z,24.20
2022-10-30T21:01:17.720Z,26.60
2022-10-30T21:03:52.042Z,28.00
2022-10-30T21:06:19.716Z,24.20
2022-10-30T21:08:47.565Z,24.40
2022-10-30T21:11:15.344Z,25.30
2022-10-30T21:13:43.576Z,25.60
2022-10-30T21:16:11.417Z,29.60
2022-10-30T21:18:39.359Z,29.10
2022-10-30T21:21:13.171Z,28.50
2022-10-30T21:23:42.328Z,28.60
2022-10-30T21:26:13.826Z,32.00
2022-10-30T21:28:41.733Z,27.70
2022-10-30T21:31:13.775Z,28.70
2022-10-30T21:33:41.518Z,30.90
2022-10-30T21:36:16.049Z,27.70
2022-10-30T21:38:46.284Z,31.70
2022-10-30T21:41:18.962Z,33.30
2022-10-30T21:43:54.331Z,38.40
2022-10-30T21:46:26.652Z,31.30
2022-10-30T21:48:56.679Z,36.30
2022-10-30T21:51:27.951Z,35.60
2022-10-30T21:53:57.569Z,32.10
2022-10-30T21:56:28.902Z,33.50
2022-10-30T21:59:00.351Z,32.70
2022-10-30T22:01:31.974Z,30.70
2022-10-30T22:04:02.370Z,30.20
2022-10-30T22:06:31.711Z,28.40
2022-10-30T22:09:01.417Z,31.30
2022-10-30T22:11:29.246Z,28.60
2022-10-30T22:14:00.852Z,27.90
2022-10-30T22:16:31.123Z,29.60
2022-10-30T22:19:00.728Z,30.70
2022-10-30T22:21:30.926Z,29.20
2022-10-30T22:24:01.330Z,30.30
2022-10-30T22:26:29.217Z,28.70
2022-10-30T22:29:00.350Z,28.80
2022-10-30T22:31:30.712Z,28.80
2022-10-30T22:34:03.390Z,32.40
2022-10-30T22:36:33.045Z,28.50
2022-10-30T22:39:05.137Z,29.90
2022-10-30T22:41:37.626Z,32.00
2022-10-30T22:44:12.775Z,29.70
2022-10-30T22:46:41.461Z,29.20
2022-10-30T22:49:09.362Z,31.30
2022-10-30T22:51:40.067Z,28.80
2022-10-30T22:54:13.798Z,29.00
2022-10-30T22:56:42.971Z,30.80
2022-10-30T22:59:13.621Z,29.50
2022-10-30T23:01:42.184Z,28.10
2022-10-30T23:04:16.057Z,33.50
2022-10-30T23:06:45.897Z,25.20
2022-10-30T23:09:22.184Z,33.20
2022-10-30T23:11:51.866Z,34.00
2022-10-30T23:14:19.633Z,33.80
2022-10-30T23:16:47.414Z,30.90
2022-10-30T23:19:16.622Z,33.00
2022-10-30T23:21:44.275Z,36.10
2022-10-30T23:24:11.999Z,30.60
2022-10-30T23:26:39.692Z,32.20
2022-10-30T23:29:09.346Z,32.50
2022-10-30T23:31:41.339Z,30.90
2022-10-30T23:34:13.259Z,29.30
2022-10-30T23:36:42.702Z,30.90
2022-10-30T23:39:16.862Z,29.00
2022-10-30T23:41:46.652Z,28.80
2022-10-30T23:44:17.165Z,29.20
2022-10-30T23:46:46.466Z,30.10
2022-10-30T23:49:14.141Z,29.00
2022-10-30T23:51:41.897Z,29.90
2022-10-30T23:54:09.724Z,32.40
2022-10-30T23:56:39.064Z,30.10
2022-10-30T23:59:10.508Z,30.00
